sensor_id;sensor_type;location;lat;lon;timestamp;P1;durP1;ratioP1;P2;durP2;ratioP2
30539;SDS011;17321;46.312;4.776;2023-04-03T00:02:02;2.83;;;1.60;;
30539;SDS011;17321;46.312;4.776;2023-04-03T00:04:28;1.63;;;1.33;;
30539;SDS011;17321;46.312;4.776;2023-04-03T00:06:55;2.25;;;1.60;;
30539;SDS011;17321;46.312;4.776;2023-04-03T00:09:21;1.48;;;1.38;;
30539;SDS011;17321;46.312;4.776;2023-04-03T00:11:47;1.40;;;1.30;;
30539;SDS011;17321;46.312;4.776;2023-04-03T00:14:13;1.58;;;1.48;;
30539;SDS011;17321;46.312;4.776;2023-04-03T00:16:39;1.45;;;1.35;;
30539;SDS011;17321;46.312;4.776;2023-04-03T00:19:05;2.08;;;1.58;;
30539;SDS011;17321;46.312;4.776;2023-04-03T00:21:32;1.55;;;1.45;;
30539;SDS011;17321;46.312;4.776;2023-04-03T00:23:58;1.40;;;1.30;;
30539;SDS011;17321;46.312;4.776;2023-04-03T00:26:24;1.73;;;1.27;;
30539;SDS011;17321;46.312;4.776;2023-04-03T00:28:51;1.27;;;1.17;;
30539;SDS011;17321;46.312;4.776;2023-04-03T00:31:17;1.60;;;1.50;;
30539;SDS011;17321;46.312;4.776;2023-04-03T00:33:43;1.10;;;1.00;;
30539;SDS011;17321;46.312;4.776;2023-04-03T00:36:09;1.23;;;1.13;;
30539;SDS011;17321;46.312;4.776;2023-04-03T00:38:36;1.25;;;1.15;;
30539;SDS011;17321;46.312;4.776;2023-04-03T00:41:02;1.02;;;1.00;;
30539;SDS011;17321;46.312;4.776;2023-04-03T00:43:28;1.42;;;0.88;;
30539;SDS011;17321;46.312;4.776;2023-04-03T00:45:55;0.90;;;0.90;;
30539;SDS011;17321;46.312;4.776;2023-04-03T00:48:32;2.38;;;1.33;;
30539;SDS011;17321;46.312;4.776;2023-04-03T00:51:00;1.60;;;1.50;;
30539;SDS011;17321;46.312;4.776;2023-04-03T00:53:33;1.48;;;1.38;;
30539;SDS011;17321;46.312;4.776;2023-04-03T00:56:01;1.88;;;1.45;;
30539;SDS011;17321;46.312;4.776;2023-04-03T00:58:37;2.15;;;1.95;;
30539;SDS011;17321;46.312;4.776;2023-04-03T01:01:06;2.30;;;2.00;;
30539;SDS011;17321;46.312;4.776;2023-04-03T01:03:33;1.60;;;1.50;;
30539;SDS011;17321;46.312;4.776;2023-04-03T01:05:59;1.88;;;1.65;;
30539;SDS011;17321;46.312;4.776;2023-04-03T01:08:26;2.03;;;1.92;;
30539;SDS011;17321;46.312;4.776;2023-04-03T01:10:52;2.30;;;2.10;;
30539;SDS011;17321;46.312;4.776;2023-04-03T01:13:20;4.47;;;2.20;;
30539;SDS011;17321;46.312;4.776;2023-04-03T01:15:46;2.50;;;2.30;;
30539;SDS011;17321;46.312;4.776;2023-04-03T01:18:12;2.67;;;2.47;;
30539;SDS011;17321;46.312;4.776;2023-04-03T01:25:34;2.20;;;2.10;;
30539;SDS011;17321;46.312;4.776;2023-04-03T01:28:01;3.55;;;2.70;;
30539;SDS011;17321;46.312;4.776;2023-04-03T01:30:29;2.70;;;2.50;;
30539;SDS011;17321;46.312;4.776;2023-04-03T01:32:56;4.57;;;2.78;;
30539;SDS011;17321;46.312;4.776;2023-04-03T01:35:22;2.65;;;2.45;;
30539;SDS011;17321;46.312;4.776;2023-04-03T01:37:48;1.77;;;1.67;;
30539;SDS011;17321;46.312;4.776;2023-04-03T01:40:15;3.05;;;2.80;;
30539;SDS011;17321;46.312;4.776;2023-04-03T01:42:41;2.75;;;2.55;;
30539;SDS011;17321;46.312;4.776;2023-04-03T01:45:07;2.35;;;2.15;;
30539;SDS011;17321;46.312;4.776;2023-04-03T01:47:33;2.72;;;2.53;;
30539;SDS011;17321;46.312;4.776;2023-04-03T01:49:59;4.07;;;2.53;;
30539;SDS011;17321;46.312;4.776;2023-04-03T01:52:26;3.38;;;3.05;;
30539;SDS011;17321;46.312;4.776;2023-04-03T01:54:52;4.00;;;2.15;;
30539;SDS011;17321;46.312;4.776;2023-04-03T01:57:18;2.72;;;2.50;;
30539;SDS011;17321;46.312;4.776;2023-04-03T01:59:44;2.58;;;2.45;;
30539;SDS011;17321;46.312;4.776;2023-04-03T02:02:10;2.90;;;2.70;;
30539;SDS011;17321;46.312;4.776;2023-04-03T02:04:37;2.95;;;2.75;;
30539;SDS011;17321;46.312;4.776;2023-04-03T02:07:03;4.05;;;2.97;;
30539;SDS011;17321;46.312;4.776;2023-04-03T02:09:30;3.00;;;2.80;;
30539;SDS011;17321;46.312;4.776;2023-04-03T02:11:56;3.40;;;3.10;;
30539;SDS011;17321;46.312;4.776;2023-04-03T02:14:22;3.80;;;3.50;;
30539;SDS011;17321;46.312;4.776;2023-04-03T02:16:48;3.33;;;3.05;;
30539;SDS011;17321;46.312;4.776;2023-04-03T02:19:15;3.05;;;2.85;;
30539;SDS011;17321;46.312;4.776;2023-04-03T02:21:41;4.28;;;3.45;;
30539;SDS011;17321;46.312;4.776;2023-04-03T02:24:07;3.72;;;3.42;;
30539;SDS011;17321;46.312;4.776;2023-04-03T02:26:33;3.72;;;3.42;;
30539;SDS011;17321;46.312;4.776;2023-04-03T02:28:59;8.30;;;3.25;;
30539;SDS011;17321;46.312;4.776;2023-04-03T02:31:25;4.18;;;3.78;;
30539;SDS011;17321;46.312;4.776;2023-04-03T02:33:52;5.78;;;3.33;;
30539;SDS011;17321;46.312;4.776;2023-04-03T02:36:18;5.30;;;3.17;;
30539;SDS011;17321;46.312;4.776;2023-04-03T02:38:44;4.45;;;4.05;;
30539;SDS011;17321;46.312;4.776;2023-04-03T02:41:10;4.53;;;4.10;;
30539;SDS011;17321;46.312;4.776;2023-04-03T02:43:37;4.03;;;3.63;;
30539;SDS011;17321;46.312;4.776;2023-04-03T02:46:03;5.05;;;4.60;;
30539;SDS011;17321;46.312;4.776;2023-04-03T02:48:29;5.28;;;4.43;;
30539;SDS011;17321;46.312;4.776;2023-04-03T02:50:56;4.82;;;4.15;;
30539;SDS011;17321;46.312;4.776;2023-04-03T02:53:22;5.07;;;4.60;;
30539;SDS011;17321;46.312;4.776;2023-04-03T02:55:48;4.82;;;4.25;;
30539;SDS011;17321;46.312;4.776;2023-04-03T02:58:14;5.03;;;4.57;;
30539;SDS011;17321;46.312;4.776;2023-04-03T03:00:41;5.57;;;4.60;;
30539;SDS011;17321;46.312;4.776;2023-04-03T03:03:07;6.70;;;5.40;;
30539;SDS011;17321;46.312;4.776;2023-04-03T03:05:33;5.57;;;5.07;;
30539;SDS011;17321;46.312;4.776;2023-04-03T03:07:59;8.65;;;5.68;;
30539;SDS011;17321;46.312;4.776;2023-04-03T03:10:25;7.10;;;4.68;;
30539;SDS011;17321;46.312;4.776;2023-04-03T03:12:51;5.90;;;5.30;;
30539;SDS011;17321;46.312;4.776;2023-04-03T03:15:17;5.90;;;5.07;;
30539;SDS011;17321;46.312;4.776;2023-04-03T03:17:44;5.13;;;4.72;;
30539;SDS011;17321;46.312;4.776;2023-04-03T03:20:10;5.90;;;5.38;;
30539;SDS011;17321;46.312;4.776;2023-04-03T03:22:37;6.25;;;5.65;;
30539;SDS011;17321;46.312;4.776;2023-04-03T03:25:03;7.30;;;5.97;;
30539;SDS011;17321;46.312;4.776;2023-04-03T03:27:31;6.53;;;5.93;;
30539;SDS011;17321;46.312;4.776;2023-04-03T03:29:57;6.30;;;5.78;;
30539;SDS011;17321;46.312;4.776;2023-04-03T03:32:23;6.40;;;5.80;;
30539;SDS011;17321;46.312;4.776;2023-04-03T03:34:50;8.55;;;6.00;;
30539;SDS011;17321;46.312;4.776;2023-04-03T03:37:16;7.25;;;6.50;;
30539;SDS011;17321;46.312;4.776;2023-04-03T03:39:42;8.00;;;6.72;;
30539;SDS011;17321;46.312;4.776;2023-04-03T03:42:08;6.97;;;6.38;;
30539;SDS011;17321;46.312;4.776;2023-04-03T03:44:35;7.55;;;6.82;;
30539;SDS011;17321;46.312;4.776;2023-04-03T03:47:01;10.48;;;8.45;;
30539;SDS011;17321;46.312;4.776;2023-04-03T03:49:28;8.73;;;7.85;;
30539;SDS011;17321;46.312;4.776;2023-04-03T03:51:54;11.48;;;8.73;;
30539;SDS011;17321;46.312;4.776;2023-04-03T03:54:20;10.27;;;8.90;;
30539;SDS011;17321;46.312;4.776;2023-04-03T03:56:46;10.98;;;8.63;;
30539;SDS011;17321;46.312;4.776;2023-04-03T03:59:12;11.77;;;9.88;;
30539;SDS011;17321;46.312;4.776;2023-04-03T04:01:39;11.95;;;10.52;;
30539;SDS011;17321;46.312;4.776;2023-04-03T04:04:05;14.65;;;11.02;;
30539;SDS011;17321;46.312;4.776;2023-04-03T04:06:31;13.65;;;11.82;;
30539;SDS011;17321;46.312;4.776;2023-04-03T04:08:57;15.00;;;13.20;;
30539;SDS011;17321;46.312;4.776;2023-04-03T04:11:23;18.33;;;13.32;;
30539;SDS011;17321;46.312;4.776;2023-04-03T04:13:49;17.27;;;13.85;;
30539;SDS011;17321;46.312;4.776;2023-04-03T04:16:16;19.85;;;13.50;;
30539;SDS011;17321;46.312;4.776;2023-04-03T04:18:42;17.33;;;13.70;;
30539;SDS011;17321;46.312;4.776;2023-04-03T04:21:08;18.92;;;15.40;;
30539;SDS011;17321;46.312;4.776;2023-04-03T04:23:34;20.85;;;16.15;;
30539;SDS011;17321;46.312;4.776;2023-04-03T04:26:00;25.95;;;18.25;;
30539;SDS011;17321;46.312;4.776;2023-04-03T04:28:26;24.65;;;18.23;;
30539;SDS011;17321;46.312;4.776;2023-04-03T04:30:52;24.02;;;18.70;;
30539;SDS011;17321;46.312;4.776;2023-04-03T04:33:18;24.45;;;18.75;;
30539;SDS011;17321;46.312;4.776;2023-04-03T04:35:46;22.52;;;17.40;;
30539;SDS011;17321;46.312;4.776;2023-04-03T04:38:13;20.85;;;15.82;;
30539;SDS011;17321;46.312;4.776;2023-04-03T04:40:39;23.85;;;16.02;;
30539;SDS011;17321;46.312;4.776;2023-04-03T04:43:06;20.38;;;17.27;;
30539;SDS011;17321;46.312;4.776;2023-04-03T04:45:32;24.33;;;18.02;;
30539;SDS011;17321;46.312;4.776;2023-04-03T04:47:58;24.75;;;17.25;;
30539;SDS011;17321;46.312;4.776;2023-04-03T04:50:24;26.85;;;19.00;;
30539;SDS011;17321;46.312;4.776;2023-04-03T04:52:50;25.25;;;18.20;;
30539;SDS011;17321;46.312;4.776;2023-04-03T04:55:17;22.85;;;17.50;;
30539;SDS011;17321;46.312;4.776;2023-04-03T04:57:43;25.23;;;18.92;;
30539;SDS011;17321;46.312;4.776;2023-04-03T05:00:09;23.38;;;18.17;;
30539;SDS011;17321;46.312;4.776;2023-04-03T05:02:35;21.65;;;17.92;;
30539;SDS011;17321;46.312;4.776;2023-04-03T05:05:02;22.08;;;18.00;;
30539;SDS011;17321;46.312;4.776;2023-04-03T05:07:28;26.73;;;18.17;;
30539;SDS011;17321;46.312;4.776;2023-04-03T05:09:55;19.75;;;16.13;;
30539;SDS011;17321;46.312;4.776;2023-04-03T05:12:21;21.15;;;16.75;;
30539;SDS011;17321;46.312;4.776;2023-04-03T05:14:47;21.35;;;16.05;;
30539;SDS011;17321;46.312;4.776;2023-04-03T05:17:13;21.25;;;16.00;;
30539;SDS011;17321;46.312;4.776;2023-04-03T05:19:39;22.13;;;16.90;;
30539;SDS011;17321;46.312;4.776;2023-04-03T05:22:05;22.58;;;17.20;;
30539;SDS011;17321;46.312;4.776;2023-04-03T05:24:31;21.98;;;16.20;;
30539;SDS011;17321;46.312;4.776;2023-04-03T05:26:58;21.25;;;15.95;;
30539;SDS011;17321;46.312;4.776;2023-04-03T05:29:24;25.17;;;18.33;;
30539;SDS011;17321;46.312;4.776;2023-04-03T05:31:50;23.80;;;17.13;;
30539;SDS011;17321;46.312;4.776;2023-04-03T05:34:16;22.58;;;16.92;;
30539;SDS011;17321;46.312;4.776;2023-04-03T05:36:42;23.83;;;18.40;;
30539;SDS011;17321;46.312;4.776;2023-04-03T05:39:09;26.75;;;19.65;;
30539;SDS011;17321;46.312;4.776;2023-04-03T05:41:35;25.83;;;17.88;;
30539;SDS011;17321;46.312;4.776;2023-04-03T05:44:01;26.30;;;18.80;;
30539;SDS011;17321;46.312;4.776;2023-04-03T05:46:27;24.30;;;18.88;;
30539;SDS011;17321;46.312;4.776;2023-04-03T05:48:53;27.05;;;18.55;;
30539;SDS011;17321;46.312;4.776;2023-04-03T05:51:24;25.17;;;17.27;;
30539;SDS011;17321;46.312;4.776;2023-04-03T05:53:55;25.20;;;19.45;;
30539;SDS011;17321;46.312;4.776;2023-04-03T05:56:22;25.45;;;19.13;;
30539;SDS011;17321;46.312;4.776;2023-04-03T05:58:48;30.90;;;19.65;;
30539;SDS011;17321;46.312;4.776;2023-04-03T06:01:14;28.30;;;20.45;;
30539;SDS011;17321;46.312;4.776;2023-04-03T06:03:41;31.10;;;20.70;;
30539;SDS011;17321;46.312;4.776;2023-04-03T06:06:07;25.05;;;17.85;;
30539;SDS011;17321;46.312;4.776;2023-04-03T06:08:33;27.73;;;17.63;;
30539;SDS011;17321;46.312;4.776;2023-04-03T06:11:00;24.20;;;17.77;;
